createdAt,value
2022-10-31T00:01:01.333Z,7.39
2022-10-31T00:03:58.430Z,7.33
2022-10-31T00:06:55.215Z,7.44
2022-10-31T00:09:52.027Z,7.33
2022-10-31T00:12:48.888Z,7.19
2022-10-31T00:15:45.719Z,7.26
2022-10-31T00:18:42.587Z,7.15
2022-10-31T00:21:39.528Z,7.22
2022-10-31T00:24:36.385Z,7.12
2022-10-31T00:27:33.180Z,7.13
2022-10-31T00:30:30.220Z,7.11
2022-10-31T00:33:27.265Z,7.33
2022-10-31T00:36:24.329Z,7.13
2022-10-31T00:39:21.172Z,7.04
2022-10-31T00:42:17.984Z,7.09
2022-10-31T00:45:14.884Z,7.11
2022-10-31T00:48:11.938Z,7.05
2022-10-31T00:51:09.546Z,7.11
2022-10-31T00:54:06.524Z,7.02
2022-10-31T00:57:03.749Z,6.89
2022-10-31T01:00:00.549Z,6.90
2022-10-31T01:02:57.806Z,6.88
2022-10-31T01:06:04.930Z,7.01
2022-10-31T01:09:01.788Z,6.93
2022-10-31T01:11:58.631Z,6.90
2022-10-31T01:14:55.425Z,6.90
2022-10-31T01:17:52.316Z,6.95
2022-10-31T01:20:58.143Z,6.91
2022-10-31T01:23:56.141Z,7.03
2022-10-31T01:26:52.972Z,6.94
2022-10-31T01:29:49.776Z,7.02
2022-10-31T01:32:46.598Z,6.90
2022-10-31T01:35:43.410Z,6.94
2022-10-31T01:38:40.468Z,6.96
2022-10-31T01:41:41.723Z,6.96
2022-10-31T01:44:38.394Z,6.95
2022-10-31T01:47:46.828Z,6.92
2022-10-31T01:50:48.748Z,6.91
2022-10-31T01:53:46.663Z,6.97
2022-10-31T01:56:49.032Z,6.98
2022-10-31T01:59:52.854Z,7.00
2022-10-31T02:02:51.399Z,6.91
2022-10-31T02:05:49.335Z,6.93
2022-10-31T02:08:46.895Z,7.01
2022-10-31T02:11:45.329Z,6.99
2022-10-31T02:14:42.334Z,6.99
2022-10-31T02:17:39.500Z,7.11
2022-10-31T02:20:51.143Z,7.04
2022-10-31T02:23:53.360Z,7.04
2022-10-31T02:27:43.434Z,6.99
2022-10-31T02:31:06.746Z,6.99
2022-10-31T02:34:38.709Z,7.00
2022-10-31T02:37:55.984Z,6.89
2022-10-31T02:41:01.250Z,6.91
2022-10-31T02:44:29.556Z,6.89
2022-10-31T02:47:34.933Z,6.81
2022-10-31T02:50:38.475Z,6.91
2022-10-31T02:53:37.512Z,6.94
2022-10-31T02:56:34.457Z,6.89
2022-10-31T02:59:34.334Z,6.82
2022-10-31T03:02:55.912Z,6.83
2022-10-31T03:06:18.159Z,6.87
2022-10-31T03:09:35.064Z,6.89
2022-10-31T03:12:44.473Z,6.81
2022-10-31T03:15:48.494Z,6.93
2022-10-31T03:19:04.792Z,6.88
2022-10-31T03:22:11.001Z,7.03
2022-10-31T03:25:09.826Z,7.02
2022-10-31T03:28:08.713Z,7.00
2022-10-31T03:31:07.796Z,7.15
2022-10-31T03:34:07.174Z,7.10
2022-10-31T03:37:09.737Z,7.16
2022-10-31T03:40:10.139Z,6.99
2022-10-31T03:43:14.798Z,7.06
2022-10-31T03:46:11.796Z,7.13
2022-10-31T03:49:09.311Z,7.18
2022-10-31T03:52:36.147Z,7.10
2022-10-31T03:55:51.501Z,7.21
2022-10-31T03:59:04.678Z,7.11
2022-10-31T04:02:11.856Z,7.06
2022-10-31T04:05:11.534Z,7.05
2022-10-31T04:08:14.130Z,7.05
2022-10-31T04:11:13.725Z,7.01
2022-10-31T04:14:12.208Z,6.88
2022-10-31T04:17:14.778Z,6.92
2022-10-31T04:20:12.282Z,6.98
2022-10-31T04:23:26.454Z,6.93
2022-10-31T04:26:23.488Z,6.95
2022-10-31T04:29:20.336Z,6.95
2022-10-31T04:32:18.596Z,6.88
2022-10-31T04:35:15.480Z,7.03
2022-10-31T04:38:12.320Z,6.91
2022-10-31T04:41:09.238Z,6.94
2022-10-31T04:44:06.125Z,6.87
2022-10-31T04:47:02.968Z,6.93
2022-10-31T04:49:59.998Z,6.79
2022-10-31T04:52:56.819Z,6.52
2022-10-31T04:55:53.631Z,6.69
2022-10-31T04:58:50.451Z,6.59
2022-10-31T05:01:47.420Z,6.74
2022-10-31T05:04:44.365Z,6.75
2022-10-31T05:07:46.674Z,6.92
2022-10-31T05:10:43.505Z,7.03
2022-10-31T05:13:40.344Z,7.17
2022-10-31T05:16:37.137Z,7.30
2022-10-31T05:19:33.991Z,7.26
2022-10-31T05:22:30.806Z,7.38
2022-10-31T05:25:29.312Z,7.36
2022-10-31T05:28:26.129Z,7.31
2022-10-31T05:31:23.022Z,7.34
2022-10-31T05:34:19.832Z,7.43
2022-10-31T05:37:16.673Z,7.33
2022-10-31T05:40:16.215Z,7.42
2022-10-31T05:43:13.038Z,7.41
2022-10-31T05:46:09.827Z,7.45
2022-10-31T05:49:06.630Z,7.40
2022-10-31T05:52:03.560Z,7.36
2022-10-31T05:55:00.680Z,7.27
2022-10-31T05:57:58.108Z,7.37
2022-10-31T06:00:55.292Z,7.33
2022-10-31T06:03:52.100Z,7.46
2022-10-31T06:06:49.102Z,7.59
2022-10-31T06:09:46.000Z,7.44
2022-10-31T06:12:42.812Z,7.57
2022-10-31T06:15:39.638Z,7.68
2022-10-31T06:18:36.496Z,7.73
2022-10-31T06:21:33.349Z,7.85
2022-10-31T06:24:30.176Z,7.90
2022-10-31T06:27:27.559Z,8.01
2022-10-31T06:30:24.457Z,8.11
2022-10-31T06:33:21.271Z,8.16
2022-10-31T06:36:18.457Z,8.15
2022-10-31T06:39:16.115Z,8.17
2022-10-31T06:42:13.138Z,8.27
2022-10-31T06:45:10.123Z,8.23
2022-10-31T06:48:22.785Z,8.35
2022-10-31T06:51:20.040Z,8.30
2022-10-31T06:54:17.236Z,8.39
2022-10-31T06:57:14.071Z,8.39
2022-10-31T07:00:11.838Z,8.45
2022-10-31T07:03:13.716Z,8.44
2022-10-31T07:06:10.531Z,8.42
2022-10-31T07:09:07.447Z,8.64
2022-10-31T07:12:04.439Z,8.65
2022-10-31T07:15:01.300Z,8.61
2022-10-31T07:18:07.124Z,8.73
2022-10-31T07:21:04.476Z,8.73
2022-10-31T07:24:01.299Z,8.68
2022-10-31T07:29:59.817Z,8.67
2022-10-31T07:32:56.635Z,8.76
2022-10-31T07:35:54.306Z,8.86
2022-10-31T07:38:51.180Z,8.87
2022-10-31T07:41:47.967Z,8.98
2022-10-31T07:44:44.818Z,9.14
2022-10-31T07:47:53.342Z,9.27
2022-10-31T07:50:50.318Z,9.24
2022-10-31T07:53:47.232Z,9.35
2022-10-31T07:56:44.065Z,9.45
2022-10-31T07:59:40.900Z,9.59
2022-10-31T08:02:37.720Z,9.59
2022-10-31T08:05:35.529Z,9.63
2022-10-31T08:08:36.009Z,9.82
2022-10-31T08:11:35.195Z,9.84
2022-10-31T08:14:32.071Z,9.86
2022-10-31T08:17:28.908Z,9.95
2022-10-31T08:20:25.939Z,10.01
2022-10-31T08:23:22.934Z,10.06
2022-10-31T08:26:19.743Z,10.28
2022-10-31T08:29:16.614Z,10.34
2022-10-31T08:32:13.849Z,10.46
2022-10-31T08:35:10.658Z,10.28
2022-10-31T08:38:08.673Z,10.15
2022-10-31T08:41:05.613Z,10.37
2022-10-31T08:44:02.665Z,10.46
2022-10-31T08:46:59.542Z,10.58
2022-10-31T08:49:56.396Z,10.63
2022-10-31T08:53:04.856Z,10.84
2022-10-31T08:56:02.327Z,10.91
2022-10-31T08:58:59.244Z,11.01
2022-10-31T09:01:56.198Z,11.18
2022-10-31T09:04:53.117Z,11.22
2022-10-31T09:07:49.958Z,11.38
2022-10-31T09:10:46.880Z,11.51
2022-10-31T09:13:43.745Z,11.60
2022-10-31T09:16:40.546Z,11.77
2022-10-31T09:19:37.357Z,12.56
2022-10-31T09:22:34.218Z,13.10
2022-10-31T09:25:31.712Z,13.17
2022-10-31T09:28:28.556Z,16.39
2022-10-31T09:31:25.361Z,18.05
2022-10-31T09:34:22.189Z,19.96
2022-10-31T09:37:19.036Z,19.97
2022-10-31T09:40:15.892Z,20.25
2022-10-31T09:43:19.454Z,18.62
2022-10-31T09:46:36.940Z,19.15
2022-10-31T09:50:20.537Z,19.34
2022-10-31T09:53:35.343Z,20.12
2022-10-31T09:56:33.528Z,20.16
2022-10-31T09:59:40.534Z,19.66
2022-10-31T10:02:48.430Z,19.78
2022-10-31T10:06:24.240Z,19.09
2022-10-31T10:09:27.033Z,18.20
2022-10-31T10:13:20.189Z,17.81
2022-10-31T10:16:56.032Z,18.60
2022-10-31T10:20:31.377Z,19.15
2022-10-31T10:23:49.006Z,19.42
2022-10-31T10:27:22.393Z,19.69
2022-10-31T10:30:27.923Z,19.18
2022-10-31T10:34:19.225Z,18.22
2022-10-31T10:37:53.876Z,18.15
2022-10-31T10:40:52.957Z,18.54
2022-10-31T10:43:55.187Z,18.01
2022-10-31T10:47:18.949Z,18.58
2022-10-31T10:50:21.476Z,18.72
2022-10-31T10:54:03.164Z,18.84
2022-10-31T10:57:21.311Z,18.49
2022-10-31T11:00:25.068Z,19.08
2022-10-31T11:03:22.357Z,19.17
2022-10-31T11:06:27.015Z,19.00
2022-10-31T11:09:23.817Z,18.87
2022-10-31T11:12:32.762Z,18.69
2022-10-31T11:15:34.762Z,18.99
2022-10-31T11:18:37.682Z,19.15
2022-10-31T11:21:35.740Z,19.03
2022-10-31T11:24:42.180Z,19.21
2022-10-31T11:27:39.028Z,19.25
2022-10-31T11:31:14.874Z,19.10
2022-10-31T11:34:43.165Z,19.01
2022-10-31T11:37:45.189Z,19.02
2022-10-31T11:41:15.835Z,19.11
2022-10-31T11:44:21.482Z,18.99
2022-10-31T11:47:29.378Z,19.20
2022-10-31T11:50:40.270Z,18.99
2022-10-31T11:53:37.169Z,18.35
2022-10-31T11:56:42.073Z,18.79
2022-10-31T11:59:40.327Z,18.71
2022-10-31T12:02:37.223Z,18.84
2022-10-31T12:05:34.433Z,18.69
2022-10-31T12:08:35.707Z,18.37
2022-10-31T12:12:08.279Z,18.43
2022-10-31T12:15:37.568Z,18.61
2022-10-31T12:19:02.781Z,18.41
2022-10-31T12:22:21.373Z,18.51
2022-10-31T12:25:52.021Z,18.40
2022-10-31T12:29:29.840Z,18.78
2022-10-31T12:32:52.796Z,18.38
2022-10-31T12:36:15.414Z,18.48
2022-10-31T12:39:26.785Z,18.33
2022-10-31T12:43:02.247Z,18.10
2022-10-31T12:46:01.513Z,18.25
2022-10-31T12:49:29.973Z,18.42
2022-10-31T12:52:51.243Z,18.30
2022-10-31T12:56:14.080Z,18.08
2022-10-31T12:59:38.874Z,18.13
2022-10-31T13:02:53.832Z,18.07
2022-10-31T13:05:59.929Z,17.89
2022-10-31T13:09:03.106Z,18.06
2022-10-31T13:12:08.762Z,17.83
2022-10-31T13:15:49.019Z,17.47
2022-10-31T13:19:21.040Z,17.48
2022-10-31T13:22:25.840Z,17.35
2022-10-31T13:25:49.333Z,17.60
2022-10-31T13:29:26.876Z,17.38
2022-10-31T13:32:37.041Z,17.19
2022-10-31T13:35:48.646Z,17.32
2022-10-31T13:39:04.348Z,17.15
2022-10-31T13:42:21.977Z,17.48
2022-10-31T13:45:23.235Z,17.21
2022-10-31T13:48:40.215Z,17.15
2022-10-31T13:51:37.076Z,16.85
2022-10-31T13:54:36.288Z,16.72
2022-10-31T13:57:45.791Z,16.65
2022-10-31T14:00:44.242Z,16.63
2022-10-31T14:07:13.860Z,16.33
2022-10-31T14:10:28.087Z,16.52
2022-10-31T14:13:43.596Z,16.07
2022-10-31T14:16:45.157Z,16.46
2022-10-31T14:19:42.001Z,16.14
2022-10-31T14:22:42.775Z,15.89
2022-10-31T14:25:41.604Z,15.91
2022-10-31T14:28:38.520Z,15.98
2022-10-31T14:31:38.574Z,15.89
2022-10-31T14:34:39.736Z,15.67
2022-10-31T14:38:09.723Z,15.54
2022-10-31T14:41:39.401Z,15.60
2022-10-31T14:45:06.834Z,15.36
2022-10-31T14:48:37.203Z,15.29
2022-10-31T14:51:40.623Z,15.13
2022-10-31T14:54:43.717Z,15.35
2022-10-31T14:57:51.797Z,15.11
2022-10-31T15:00:57.964Z,14.87
2022-10-31T15:07:26.424Z,14.73
2022-10-31T15:10:30.644Z,14.60
2022-10-31T15:13:27.486Z,14.49
2022-10-31T15:19:35.401Z,14.13
2022-10-31T15:22:32.801Z,14.30
2022-10-31T15:25:35.393Z,14.42
2022-10-31T15:28:32.693Z,14.44
2022-10-31T15:31:32.257Z,14.07
2022-10-31T15:34:43.376Z,13.79
2022-10-31T15:37:42.679Z,13.55
2022-10-31T15:40:39.618Z,13.46
2022-10-31T15:43:45.426Z,13.52
2022-10-31T15:46:42.549Z,13.37
2022-10-31T15:49:50.679Z,13.23
2022-10-31T15:52:49.232Z,13.25
2022-10-31T15:56:02.680Z,13.22
2022-10-31T15:59:02.561Z,13.05
2022-10-31T16:02:11.970Z,13.14
2022-10-31T16:05:20.425Z,13.03
2022-10-31T16:08:35.431Z,13.13
2022-10-31T16:11:39.885Z,13.00
2022-10-31T16:14:44.509Z,13.08
2022-10-31T16:17:44.228Z,13.13
2022-10-31T16:20:41.061Z,13.14
2022-10-31T16:23:45.282Z,13.25
2022-10-31T16:26:42.617Z,13.20
2022-10-31T16:29:47.561Z,12.77
2022-10-31T16:33:02.183Z,13.18
2022-10-31T16:36:22.425Z,13.18
2022-10-31T16:39:20.819Z,13.12
2022-10-31T16:42:18.827Z,12.94
2022-10-31T16:45:26.165Z,12.65
2022-10-31T16:48:25.398Z,12.55
2022-10-31T16:51:24.464Z,12.52
2022-10-31T16:54:21.275Z,12.57
2022-10-31T16:57:27.266Z,12.63
2022-10-31T17:00:28.874Z,12.61
2022-10-31T17:03:25.777Z,12.44
2022-10-31T17:06:22.602Z,12.41
2022-10-31T17:09:19.416Z,12.33
2022-10-31T17:12:22.902Z,12.20
2022-10-31T17:15:26.865Z,12.34
2022-10-31T17:18:27.607Z,12.44
2022-10-31T17:21:27.951Z,12.76
2022-10-31T17:24:27.101Z,12.76
2022-10-31T17:27:23.986Z,12.61
2022-10-31T17:30:24.915Z,12.61
2022-10-31T17:33:21.852Z,12.47
2022-10-31T17:36:18.706Z,12.29
2022-10-31T17:39:15.501Z,12.09
2022-10-31T17:42:12.896Z,12.08
2022-10-31T17:45:10.609Z,11.85
2022-10-31T17:48:10.795Z,11.73
2022-10-31T17:51:07.936Z,11.67
2022-10-31T17:54:09.831Z,11.60
2022-10-31T17:57:06.798Z,11.50
2022-10-31T18:00:10.203Z,11.60
2022-10-31T18:03:07.741Z,11.50
2022-10-31T18:06:05.551Z,11.34
2022-10-31T18:09:06.337Z,11.53
2022-10-31T18:12:03.286Z,11.42
2022-10-31T18:15:00.342Z,11.30
2022-10-31T18:17:57.231Z,11.55
2022-10-31T18:20:58.045Z,11.52
2022-10-31T18:23:56.728Z,11.43
2022-10-31T18:26:53.600Z,11.07
2022-10-31T18:29:50.495Z,11.01
2022-10-31T18:32:53.247Z,10.74
2022-10-31T18:35:50.139Z,10.82
2022-10-31T18:38:47.023Z,11.03
2022-10-31T18:41:43.937Z,10.98
2022-10-31T18:44:40.852Z,10.77
2022-10-31T18:47:37.727Z,10.80
2022-10-31T18:50:34.664Z,10.71
2022-10-31T18:53:32.281Z,10.71
2022-10-31T18:56:33.293Z,10.79
2022-10-31T18:59:30.273Z,10.58
2022-10-31T19:02:27.581Z,10.64
2022-10-31T19:05:24.513Z,10.39
2022-10-31T19:08:23.779Z,10.43
2022-10-31T19:11:20.735Z,10.57
2022-10-31T19:14:17.751Z,10.51
2022-10-31T19:17:14.800Z,10.52
2022-10-31T19:20:12.488Z,10.41
2022-10-31T19:23:09.328Z,10.45
2022-10-31T19:26:06.514Z,10.42
2022-10-31T19:29:04.150Z,10.42
2022-10-31T19:32:01.156Z,10.51
2022-10-31T19:35:01.042Z,10.64
2022-10-31T19:37:58.054Z,10.66
2022-10-31T19:41:01.592Z,10.66
2022-10-31T19:44:00.942Z,10.60
2022-10-31T19:46:58.223Z,10.82
2022-10-31T19:49:55.083Z,10.51
2022-10-31T19:52:51.953Z,10.70
2022-10-31T19:55:48.944Z,10.65
2022-10-31T19:58:46.647Z,10.66
2022-10-31T20:01:43.623Z,10.72
2022-10-31T20:04:41.687Z,10.78
2022-10-31T20:07:41.314Z,10.78
2022-10-31T20:10:38.200Z,10.45
2022-10-31T20:13:35.085Z,10.65
2022-10-31T20:16:32.582Z,10.36
2022-10-31T20:19:29.495Z,10.33
2022-10-31T20:22:26.551Z,10.34
2022-10-31T20:25:23.376Z,10.41
2022-10-31T20:28:20.426Z,10.30
2022-10-31T20:31:23.857Z,10.13
2022-10-31T20:34:20.835Z,10.07
2022-10-31T20:37:17.834Z,10.05
2022-10-31T20:40:14.795Z,10.07
2022-10-31T20:43:12.495Z,10.11
2022-10-31T20:46:19.371Z,10.02
2022-10-31T20:49:16.290Z,10.15
2022-10-31T20:52:13.135Z,10.18
2022-10-31T20:55:10.798Z,10.15
2022-10-31T20:58:08.105Z,10.06
2022-10-31T21:01:27.035Z,9.93
2022-10-31T21:04:24.003Z,10.00
2022-10-31T21:07:20.899Z,9.98
2022-10-31T21:10:17.809Z,10.04
2022-10-31T21:13:15.126Z,9.85
2022-10-31T21:16:21.433Z,9.85
2022-10-31T21:19:18.390Z,9.82
2022-10-31T21:22:15.261Z,9.73
2022-10-31T21:25:12.102Z,9.67
2022-10-31T21:28:13.199Z,9.63
2022-10-31T21:31:15.676Z,9.59
2022-10-31T21:34:13.158Z,9.70
2022-10-31T21:37:10.032Z,9.26
2022-10-31T21:40:07.811Z,9.28
2022-10-31T21:43:04.971Z,9.12
2022-10-31T21:46:13.800Z,9.18
2022-10-31T21:49:11.447Z,9.23
2022-10-31T21:52:08.873Z,9.26
2022-10-31T21:55:06.478Z,8.94
2022-10-31T21:58:03.572Z,9.06
2022-10-31T22:01:03.792Z,9.02
2022-10-31T22:04:00.766Z,8.93
2022-10-31T22:06:57.624Z,8.83
2022-10-31T22:09:54.465Z,8.81
2022-10-31T22:12:51.278Z,8.72
2022-10-31T22:15:48.118Z,8.89
2022-10-31T22:18:45.522Z,8.98
2022-10-31T22:21:48.533Z,8.82
2022-10-31T22:24:45.334Z,8.83
2022-10-31T22:27:42.737Z,8.81
2022-10-31T22:30:39.515Z,8.71
2022-10-31T22:33:37.149Z,8.70
2022-10-31T22:36:34.378Z,8.63
2022-10-31T22:39:31.228Z,8.62
2022-10-31T22:42:28.112Z,8.73
2022-10-31T22:45:24.983Z,8.80
2022-10-31T22:48:21.998Z,8.74
2022-10-31T22:51:26.260Z,8.61
2022-10-31T22:54:23.064Z,8.72
2022-10-31T22:57:19.874Z,8.66
2022-10-31T23:00:18.413Z,8.71
2022-10-31T23:03:15.227Z,8.58
2022-10-31T23:06:16.362Z,8.45
2022-10-31T23:09:16.275Z,8.37
2022-10-31T23:12:31.660Z,8.46
2022-10-31T23:15:28.534Z,8.36
2022-10-31T23:18:48.492Z,8.60
2022-10-31T23:22:00.923Z,8.35
2022-10-31T23:24:57.918Z,8.25
2022-10-31T23:27:54.728Z,8.26
2022-10-31T23:30:51.537Z,8.27
2022-10-31T23:33:48.337Z,8.44
2022-10-31T23:36:45.168Z,8.43
2022-10-31T23:39:42.350Z,8.08
2022-10-31T23:42:39.154Z,8.17
2022-10-31T23:45:35.988Z,8.23
2022-10-31T23:48:32.847Z,8.05
2022-10-31T23:51:29.683Z,8.28
2022-10-31T23:54:27.560Z,8.37
2022-10-31T23:57:24.384Z,8.13
